Time;durP1;ratioP1;P1;durP2;ratioP2;P2;SDS_P1;SDS_P2;PMS_P1;PMS_P2;Temp;Humidity;BMP_temperature;BMP_pressure;BME280_temperature;BME280_humidity;BME280_pressure;Samples;Min_cycle;Max_cycle;Signal;HPM_P1;HPM_P2
2021/04/13 00:02:38;;;;;;;3.63;1.60;;;3.30;99.90;;;;;;4975896;28;20054;-84
2021/04/13 00:05:31;;;;;;;3.13;1.53;;;3.30;99.90;;;;;;4960672;28;20117;-86
2021/04/13 00:08:01;;;;;;;3.57;1.63;;;3.30;99.90;;;;;;4976632;28;20436;-85
2021/04/13 00:10:42;;;;;;;4.23;1.47;;;3.30;99.90;;;;;;4959285;28;20026;-85
2021/04/13 00:13:08;;;;;;;4.63;1.87;;;3.20;99.90;;;;;;4970266;28;20023;-86
2021/04/13 00:15:55;;;;;;;3.27;1.60;;;3.30;99.90;;;;;;4983687;28;20053;-85
2021/04/13 00:18:28;;;;;;;5.53;1.77;;;3.30;99.90;;;;;;4988007;28;20074;-85
2021/04/13 00:21:06;;;;;;;5.80;1.80;;;3.40;99.90;;;;;;4965367;28;20038;-85
2021/04/13 00:23:33;;;;;;;6.10;1.57;;;3.60;99.90;;;;;;4983120;28;20022;-86
2021/04/13 00:26:04;;;;;;;4.33;1.47;;;3.30;99.90;;;;;;5001358;28;20753;-86
2021/04/13 00:28:47;;;;;;;5.57;1.60;;;3.40;99.90;;;;;;4983257;28;20110;-86
2021/04/13 00:31:39;;;;;;;3.97;1.30;;;3.30;99.90;;;;;;4982972;28;20037;-86
2021/04/13 00:34:08;;;;;;;4.47;1.60;;;3.20;99.90;;;;;;5001233;28;20033;-86
2021/04/13 00:36:34;;;;;;;3.77;1.87;;;3.20;99.90;;;;;;4983283;28;20026;-86
2021/04/13 00:39:12;;;;;;;4.90;1.70;;;3.40;99.90;;;;;;4998082;28;20029;-86
2021/04/13 00:41:43;;;;;;;5.20;1.93;;;3.30;99.90;;;;;;4991101;28;20049;-86
2021/04/13 00:44:10;;;;;;;3.47;1.90;;;3.20;99.90;;;;;;4999500;28;20094;-84
2021/04/13 00:46:55;;;;;;;3.90;2.00;;;3.10;99.90;;;;;;4990558;28;20034;-84
2021/04/13 00:49:24;;;;;;;6.97;1.93;;;3.10;99.90;;;;;;4990072;28;20027;-85
2021/04/13 00:51:54;;;;;;;3.57;1.83;;;3.10;99.90;;;;;;4993469;28;20091;-85
2021/04/13 00:54:35;;;;;;;5.40;2.60;;;3.20;99.90;;;;;;4996049;28;20418;-85
2021/04/13 00:57:34;;;;;;;6.53;2.70;;;3.00;99.90;;;;;;4993421;28;20357;-85
2021/04/13 01:00:02;;;;;;;8.43;3.50;;;3.00;99.90;;;;;;4966084;28;20733;-85
2021/04/13 01:02:30;;;;;;;9.87;3.87;;;3.00;99.90;;;;;;4999398;28;20046;-86
2021/04/13 01:05:02;;;;;;;12.43;5.00;;;3.10;99.90;;;;;;4999774;28;20069;-84
2021/04/13 01:07:40;;;;;;;6.22;3.85;;;2.90;99.90;;;;;;5001161;28;20413;-85
2021/04/13 01:10:34;;;;;;;7.83;4.20;;;3.00;99.90;;;;;;4985101;28;20041;-85
2021/04/13 01:13:20;;;;;;;6.73;3.77;;;3.00;99.90;;;;;;4983353;28;20062;-86
2021/04/13 01:15:51;;;;;;;7.43;4.23;;;3.00;99.90;;;;;;4974586;28;20049;-86
2021/04/13 01:18:22;;;;;;;9.83;5.13;;;3.00;99.90;;;;;;4973451;28;20023;-86
2021/04/13 01:21:11;;;;;;;9.77;5.80;;;3.00;99.90;;;;;;4961988;28;20045;-86
2021/04/13 01:26:35;;;;;;;12.67;6.37;;;3.10;99.90;;;;;;4966191;28;20062;-86
2021/04/13 01:29:01;;;;;;;12.77;6.47;;;3.20;99.90;;;;;;4980156;28;20027;-86
2021/04/13 01:34:12;;;;;;;14.73;7.53;;;3.20;99.90;;;;;;4979613;28;20373;-86
2021/04/13 01:36:42;;;;;;;13.20;7.43;;;2.90;99.90;;;;;;4962865;28;20061;-86
2021/04/13 01:39:13;;;;;;;15.93;8.03;;;3.00;99.90;;;;;;4980281;28;20073;-86
2021/04/13 01:41:58;;;;;;;17.73;8.77;;;3.00;99.90;;;;;;4979092;28;20089;-86
2021/04/13 01:44:27;;;;;;;15.83;8.70;;;3.00;99.90;;;;;;4986581;28;20432;-86
2021/04/13 01:46:56;;;;;;;16.67;8.93;;;3.10;99.90;;;;;;4976322;28;20029;-86
2021/04/13 01:49:23;;;;;;;16.53;9.10;;;3.00;99.90;;;;;;4981703;28;20029;-86
2021/04/13 01:51:50;;;;;;;15.93;9.23;;;2.90;99.90;;;;;;4989159;28;20115;-86
2021/04/13 01:54:17;;;;;;;14.50;8.63;;;2.90;99.90;;;;;;4993679;28;20763;-86
2021/04/13 01:56:52;;;;;;;16.03;8.73;;;2.80;99.90;;;;;;4998867;28;20026;-86
2021/04/13 01:59:35;;;;;;;15.13;8.23;;;2.80;99.90;;;;;;4997912;28;20466;-86
2021/04/13 02:02:13;;;;;;;13.97;7.73;;;2.90;99.90;;;;;;4990052;28;20031;-86
2021/04/13 02:04:50;;;;;;;14.13;8.50;;;2.80;99.90;;;;;;4978769;28;20034;-86
2021/04/13 02:07:37;;;;;;;11.53;5.80;;;2.80;99.90;;;;;;4987205;28;20109;-86
2021/04/13 02:10:45;;;;;;;22.77;7.57;;;2.90;99.90;;;;;;4993592;28;20117;-86
2021/04/13 02:13:22;;;;;;;10.70;5.50;;;2.80;99.90;;;;;;4980804;28;20109;-85
2021/04/13 02:16:01;;;;;;;10.43;6.10;;;2.80;99.90;;;;;;4980617;28;20585;-86
2021/04/13 02:18:39;;;;;;;12.70;6.00;;;2.60;99.90;;;;;;4968905;28;20054;-86
2021/04/13 02:21:16;;;;;;;10.83;6.40;;;2.60;99.90;;;;;;4992384;28;20356;-85
2021/04/13 02:23:46;;;;;;;9.40;5.90;;;2.60;99.90;;;;;;4997430;28;20089;-86
2021/04/13 02:26:13;;;;;;;10.73;6.10;;;2.60;99.90;;;;;;4986330;28;20037;-86
2021/04/13 02:28:40;;;;;;;10.93;6.67;;;3.10;99.90;;;;;;4979663;28;20031;-86
2021/04/13 02:31:08;;;;;;;12.30;6.50;;;2.70;99.90;;;;;;4979851;28;20036;-86
2021/04/13 02:33:38;;;;;;;10.57;6.10;;;2.60;99.90;;;;;;4979214;28;20488;-86
2021/04/13 02:36:16;;;;;;;12.20;6.67;;;2.60;99.90;;;;;;4979441;28;20488;-86
2021/04/13 02:38:48;;;;;;;13.23;6.17;;;2.60;99.90;;;;;;4996935;28;20092;-86
2021/04/13 02:41:23;;;;;;;12.23;5.95;;;2.60;99.90;;;;;;4979573;28;20547;-86
2021/04/13 02:43:54;;;;;;;10.87;5.77;;;3.00;99.90;;;;;;4979392;28;20035;-86
2021/04/13 02:46:29;;;;;;;10.60;5.83;;;2.50;99.90;;;;;;4997170;28;20022;-86
2021/04/13 02:49:11;;;;;;;12.87;5.63;;;2.50;99.90;;;;;;4997483;28;20110;-86
2021/04/13 02:51:52;;;;;;;10.17;5.73;;;2.50;99.90;;;;;;4994517;28;20372;-86
2021/04/13 02:54:39;;;;;;;8.73;5.47;;;2.40;99.90;;;;;;4992493;28;20545;-86
2021/04/13 02:57:13;;;;;;;9.60;5.60;;;2.40;99.90;;;;;;4995745;28;20022;-86
2021/04/13 02:59:39;;;;;;;10.90;6.10;;;2.30;99.90;;;;;;4977935;28;20205;-86
2021/04/13 03:02:36;;;;;;;9.90;5.50;;;2.30;99.90;;;;;;4984710;28;20487;-86
2021/04/13 03:05:04;;;;;;;10.53;5.70;;;2.30;99.90;;;;;;4984379;28;20038;-86
2021/04/13 03:07:31;;;;;;;12.17;5.63;;;2.30;99.90;;;;;;4996652;28;20022;-86
2021/04/13 03:10:17;;;;;;;9.77;5.77;;;2.50;99.90;;;;;;4995823;28;20033;-86
2021/04/13 03:12:46;;;;;;;9.83;5.57;;;2.30;99.90;;;;;;4996197;28;20391;-85
2021/04/13 03:15:18;;;;;;;9.60;5.50;;;2.30;99.90;;;;;;4996322;28;20033;-85
2021/04/13 03:17:49;;;;;;;8.60;4.80;;;2.30;99.90;;;;;;4964744;28;20038;-85
2021/04/13 03:20:21;;;;;;;10.50;5.37;;;2.30;99.90;;;;;;4959242;28;20030;-85
2021/04/13 03:22:49;;;;;;;10.20;5.27;;;2.60;99.90;;;;;;4959113;28;20026;-85
2021/04/13 03:25:16;;;;;;;10.73;5.57;;;2.40;99.90;;;;;;4966731;28;20026;-86
2021/04/13 03:27:42;;;;;;;8.93;5.40;;;2.40;99.90;;;;;;4996024;28;20034;-85
2021/04/13 03:30:16;;;;;;;10.57;5.33;;;2.50;99.90;;;;;;4978129;28;20022;-85
2021/04/13 03:32:56;;;;;;;10.97;6.33;;;2.50;99.90;;;;;;4977461;28;20529;-86
2021/04/13 03:35:24;;;;;;;8.67;5.80;;;2.60;99.90;;;;;;4974644;28;20027;-85
2021/04/13 03:37:52;;;;;;;11.43;5.87;;;2.50;99.90;;;;;;4959378;28;20118;-85
2021/04/13 03:40:21;;;;;;;10.13;5.83;;;2.50;99.90;;;;;;4959717;28;20027;-85
2021/04/13 03:42:52;;;;;;;9.77;5.63;;;2.40;99.90;;;;;;4970187;28;20033;-85
2021/04/13 03:45:18;;;;;;;10.07;5.30;;;2.40;99.90;;;;;;4979346;28;20026;-85
2021/04/13 03:47:45;;;;;;;11.07;5.60;;;2.40;99.90;;;;;;4997144;28;20416;-86
2021/04/13 03:50:21;;;;;;;9.87;5.70;;;2.30;99.90;;;;;;4998210;28;20471;-85
2021/04/13 03:53:00;;;;;;;12.03;5.37;;;2.30;99.90;;;;;;4975724;28;20034;-85
2021/04/13 03:55:26;;;;;;;10.90;5.67;;;2.20;99.90;;;;;;4990625;28;20065;-85
2021/04/13 03:57:51;;;;;;;9.27;5.30;;;2.20;99.90;;;;;;4980632;28;20034;-85
2021/04/13 04:00:21;;;;;;;9.37;5.23;;;2.10;99.90;;;;;;4980481;28;20045;-85
2021/04/13 04:02:47;;;;;;;9.10;5.10;;;2.10;99.90;;;;;;4963762;28;20694;-85
2021/04/13 04:05:19;;;;;;;8.33;4.60;;;2.30;99.90;;;;;;4961401;28;20035;-85
2021/04/13 04:10:28;;;;;;;10.13;5.57;;;2.10;99.90;;;;;;4978222;28;20026;-85
2021/04/13 04:13:06;;;;;;;10.17;4.63;;;2.10;99.90;;;;;;4960453;28;20034;-85
2021/04/13 04:15:41;;;;;;;9.10;4.60;;;2.10;99.90;;;;;;4961266;28;20026;-85
2021/04/13 04:18:20;;;;;;;9.87;5.03;;;2.10;99.90;;;;;;4960928;28;20089;-85
2021/04/13 04:20:46;;;;;;;10.63;4.90;;;2.10;99.90;;;;;;4960706;28;20062;-85
2021/04/13 04:23:18;;;;;;;8.77;4.63;;;2.00;99.90;;;;;;4978451;28;20042;-85
2021/04/13 04:25:48;;;;;;;9.52;4.72;;;2.10;99.90;;;;;;4978311;28;20057;-84
2021/04/13 04:28:23;;;;;;;8.90;4.87;;;2.10;99.90;;;;;;4968463;28;20046;-85
2021/04/13 04:30:49;;;;;;;10.33;5.07;;;2.10;99.90;;;;;;4980017;28;20038;-85
2021/04/13 04:33:39;;;;;;;10.07;5.30;;;2.00;99.90;;;;;;4978903;28;20022;-85
2021/04/13 04:36:44;;;;;;;9.30;4.90;;;2.30;99.90;;;;;;4994938;28;20464;-85
2021/04/13 04:39:33;;;;;;;8.80;4.97;;;2.00;99.90;;;;;;4936335;29;20036;-85
2021/04/13 04:42:07;;;;;;;8.17;4.60;;;2.00;99.90;;;;;;4936582;29;20452;-85
2021/04/13 04:44:33;;;;;;;10.87;5.13;;;2.00;99.90;;;;;;4964145;28;20097;-84
2021/04/13 04:46:59;;;;;;;11.27;5.13;;;2.00;99.90;;;;;;4973332;28;20424;-84
2021/04/13 04:49:47;;;;;;;8.53;4.47;;;2.00;99.90;;;;;;4973789;28;20034;-85
2021/04/13 04:52:13;;;;;;;11.67;5.43;;;1.90;99.90;;;;;;4973710;28;20049;-85
2021/04/13 04:54:39;;;;;;;7.53;4.63;;;1.90;99.90;;;;;;4973974;28;20026;-85
2021/04/13 04:57:05;;;;;;;12.87;5.40;;;1.90;99.90;;;;;;4958997;28;20070;-85
2021/04/13 04:59:30;;;;;;;9.67;4.87;;;1.90;99.90;;;;;;4960999;28;20447;-85
2021/04/13 05:01:58;;;;;;;8.77;4.80;;;1.90;99.90;;;;;;4979026;28;20514;-85
2021/04/13 05:04:24;;;;;;;11.80;5.60;;;1.90;99.90;;;;;;4961187;28;20038;-86
2021/04/13 05:06:49;;;;;;;11.27;5.10;;;1.80;99.90;;;;;;4964717;28;20038;-85
2021/04/13 05:09:15;;;;;;;9.43;5.13;;;1.80;99.90;;;;;;4978620;28;20101;-85
2021/04/13 05:11:41;;;;;;;11.53;5.93;;;1.80;99.90;;;;;;4994417;28;20034;-85
2021/04/13 05:14:06;;;;;;;10.03;5.77;;;1.80;99.90;;;;;;4979965;28;20058;-85
2021/04/13 05:16:32;;;;;;;13.70;7.47;;;1.80;99.90;;;;;;4967239;28;20457;-86
2021/04/13 05:18:57;;;;;;;11.57;6.50;;;1.90;99.90;;;;;;4967576;28;20185;-85
2021/04/13 05:21:23;;;;;;;11.07;6.23;;;2.00;99.90;;;;;;4978408;28;20031;-87
2021/04/13 05:23:49;;;;;;;8.90;5.30;;;1.90;99.90;;;;;;4989028;28;20120;-86
2021/04/13 05:26:14;;;;;;;10.27;6.30;;;2.00;99.90;;;;;;4998038;28;20034;-86
2021/04/13 05:28:40;;;;;;;11.03;6.50;;;2.00;99.90;;;;;;4982534;28;20129;-86
2021/04/13 05:31:06;;;;;;;9.63;5.90;;;2.10;99.90;;;;;;4997993;28;20613;-86
2021/04/13 05:33:32;;;;;;;7.57;4.47;;;2.10;99.90;;;;;;4977366;28;20027;-87
2021/04/13 05:36:00;;;;;;;10.47;5.50;;;2.20;99.90;;;;;;4990066;28;20113;-86
2021/04/13 05:38:35;;;;;;;9.47;5.27;;;2.30;99.90;;;;;;4985174;28;20156;-86
2021/04/13 05:41:03;;;;;;;9.93;5.33;;;2.40;99.90;;;;;;4984247;28;20129;-86
2021/04/13 05:43:29;;;;;;;8.67;5.20;;;2.30;99.90;;;;;;4978331;28;20037;-86
2021/04/13 05:45:58;;;;;;;8.87;5.33;;;2.30;99.90;;;;;;4981835;28;20038;-85
2021/04/13 05:48:26;;;;;;;10.67;5.13;;;2.30;99.90;;;;;;4993943;28;20081;-86
2021/04/13 05:50:52;;;;;;;9.00;5.43;;;2.40;99.90;;;;;;4980177;28;20033;-86
2021/04/13 05:53:18;;;;;;;11.77;5.17;;;2.50;99.90;;;;;;4981441;28;20527;-86
2021/04/13 05:55:44;;;;;;;9.50;5.63;;;2.60;99.90;;;;;;4966520;28;20027;-86
2021/04/13 05:58:20;;;;;;;9.73;4.97;;;2.60;99.90;;;;;;4984258;28;20107;-86
2021/04/13 06:00:49;;;;;;;14.17;5.60;;;2.80;99.90;;;;;;4974555;28;20030;-86
2021/04/13 06:03:16;;;;;;;12.40;6.20;;;2.90;99.90;;;;;;4984020;28;20121;-86
2021/04/13 06:05:42;;;;;;;10.33;5.13;;;3.00;99.90;;;;;;4969545;28;20125;-86
2021/04/13 06:08:10;;;;;;;10.53;5.43;;;3.10;99.90;;;;;;4971759;28;20107;-86
2021/04/13 06:10:36;;;;;;;13.73;6.10;;;3.20;99.90;;;;;;4978199;28;20058;-86
2021/04/13 06:13:02;;;;;;;12.03;5.40;;;3.20;99.90;;;;;;4978752;28;20022;-86
2021/04/13 06:15:31;;;;;;;10.57;6.20;;;3.30;99.90;;;;;;4975225;28;20042;-86
2021/04/13 06:17:59;;;;;;;9.27;5.70;;;3.30;99.90;;;;;;4978935;28;20500;-86
2021/04/13 06:20:27;;;;;;;9.83;5.53;;;3.40;99.90;;;;;;4980721;28;20034;-86
2021/04/13 06:22:54;;;;;;;13.50;6.67;;;3.40;99.90;;;;;;4975575;28;20030;-86
2021/04/13 06:25:23;;;;;;;11.00;6.27;;;3.50;99.90;;;;;;4973169;28;20030;-86
2021/04/13 06:27:50;;;;;;;11.27;6.47;;;3.70;99.90;;;;;;4972815;28;20045;-86
2021/04/13 06:30:18;;;;;;;10.57;6.50;;;3.70;99.90;;;;;;4973947;28;20057;-86
2021/04/13 06:32:44;;;;;;;11.47;6.67;;;3.70;99.90;;;;;;4971118;28;20036;-86
2021/04/13 06:35:09;;;;;;;10.87;6.77;;;3.70;99.90;;;;;;4972956;28;20394;-85
2021/04/13 06:37:38;;;;;;;9.87;6.57;;;3.60;99.90;;;;;;4974842;28;20109;-86
2021/04/13 06:40:06;;;;;;;10.50;6.47;;;3.60;99.90;;;;;;4975070;28;20030;-86
2021/04/13 06:42:47;;;;;;;12.90;7.53;;;3.50;99.90;;;;;;4995441;28;20034;-87
2021/04/13 06:45:39;;;;;;;12.70;7.40;;;3.60;99.90;;;;;;4985494;28;20038;-88
2021/04/13 06:48:48;;;;;;;10.02;5.18;;;3.80;99.90;;;;;;4976816;28;20030;-88
2021/04/13 06:51:23;;;;;;;14.40;8.20;;;4.00;99.90;;;;;;4994742;28;20085;-86
2021/04/13 06:54:10;;;;;;;13.73;7.00;;;4.20;99.90;;;;;;4995333;28;20034;-87
2021/04/13 06:57:01;;;;;;;11.60;6.70;;;4.20;99.90;;;;;;4976376;28;20030;-86
2021/04/13 06:59:51;;;;;;;11.93;6.73;;;4.10;99.90;;;;;;4974533;28;20383;-86
2021/04/13 07:02:27;;;;;;;9.63;6.40;;;4.10;99.90;;;;;;4972552;28;20125;-86
2021/04/13 07:05:09;;;;;;;14.00;7.53;;;4.10;99.90;;;;;;4966504;28;20113;-87
2021/04/13 07:07:37;;;;;;;9.02;6.10;;;4.20;99.90;;;;;;4977458;28;20203;-86
2021/04/13 07:10:22;;;;;;;15.27;7.60;;;4.40;99.90;;;;;;4962902;28;20037;-86
2021/04/13 07:13:40;;;;;;;12.57;6.87;;;4.50;99.90;;;;;;4969983;28;20118;-87
2021/04/13 07:16:21;;;;;;;11.73;6.60;;;4.70;99.90;;;;;;4965912;28;20102;-86
2021/04/13 07:19:03;;;;;;;11.17;7.03;;;5.00;99.90;;;;;;4975494;28;20377;-86
2021/04/13 07:21:47;;;;;;;;;;;5.20;99.90;;;;;;4990816;28;20053;-87
2021/04/13 07:24:48;;;;;;;11.13;6.87;;;5.30;99.90;;;;;;4983547;28;19906;-86
2021/04/13 07:27:28;;;;;;;9.73;6.60;;;5.30;99.90;;;;;;4975745;28;20027;-86
2021/04/13 07:30:04;;;;;;;9.87;5.83;;;5.50;99.90;;;;;;4974895;28;20030;-86
2021/04/13 07:32:33;;;;;;;10.20;7.37;;;5.60;99.90;;;;;;4992898;28;20033;-87
2021/04/13 07:35:01;;;;;;;11.60;7.03;;;5.70;99.90;;;;;;4992372;28;20030;-86
2021/04/13 07:37:53;;;;;;;11.70;6.87;;;5.80;99.90;;;;;;4977820;28;20153;-86
2021/04/13 07:40:33;;;;;;;11.47;7.33;;;5.90;99.90;;;;;;4969061;28;20027;-87
2021/04/13 07:43:23;;;;;;;9.10;7.10;;;5.80;99.90;;;;;;4975420;28;20026;-87
2021/04/13 07:46:15;;;;;;;12.70;7.00;;;6.00;99.90;;;;;;4965536;28;20101;-87
2021/04/13 07:48:49;;;;;;;12.68;7.60;;;5.90;99.90;;;;;;4957036;28;20034;-88
2021/04/13 07:51:35;;;;;;;11.87;8.33;;;5.90;99.90;;;;;;4976975;28;20069;-87
2021/04/13 07:54:25;;;;;;;11.63;7.47;;;5.80;99.90;;;;;;4974567;28;20134;-89
2021/04/13 07:57:29;;;;;;;12.87;7.80;;;5.70;99.90;;;;;;4974350;28;20117;-87
2021/04/13 08:00:15;;;;;;;11.47;7.27;;;5.50;99.90;;;;;;4976300;28;20030;-85
2021/04/13 08:02:41;;;;;;;10.90;7.53;;;5.30;99.90;;;;;;4975667;28;20512;-87
2021/04/13 08:05:10;;;;;;;12.57;7.20;;;5.40;99.90;;;;;;4975751;28;20568;-86
2021/04/13 08:07:41;;;;;;;12.70;8.17;;;5.40;99.90;;;;;;4975552;28;20035;-87
2021/04/13 08:10:32;;;;;;;10.90;7.33;;;5.60;99.90;;;;;;4970693;28;20034;-89
2021/04/13 08:13:01;;;;;;;13.10;8.07;;;5.70;99.90;;;;;;4974558;28;20046;-84
2021/04/13 08:15:49;;;;;;;11.07;7.97;;;5.40;99.90;;;;;;4965740;28;20026;-86
2021/04/13 08:18:18;;;;;;;14.43;8.77;;;5.50;99.90;;;;;;4971667;28;20034;-85
2021/04/13 08:20:46;;;;;;;13.77;8.57;;;5.50;99.90;;;;;;4975433;28;20117;-86
2021/04/13 08:23:22;;;;;;;15.87;8.90;;;5.40;99.90;;;;;;4973316;28;20030;-87
2021/04/13 08:25:54;;;;;;;11.73;8.10;;;5.30;99.90;;;;;;4977030;28;20045;-87
2021/04/13 08:28:22;;;;;;;15.52;9.63;;;5.30;99.90;;;;;;4979807;28;20092;-90
2021/04/13 08:34:18;;;;;;;10.37;7.13;;;5.20;99.90;;;;;;5010603;28;20098;-89
2021/04/13 08:37:11;;;;;;;10.07;6.67;;;5.30;99.90;;;;;;4998720;28;20034;-87
2021/04/13 08:39:56;;;;;;;8.90;4.90;;;5.40;99.90;;;;;;4976723;28;20026;-87
2021/04/13 08:42:45;;;;;;;8.77;5.90;;;5.60;99.90;;;;;;4993380;28;20069;-87
2021/04/13 08:45:22;;;;;;;8.67;5.17;;;5.80;99.90;;;;;;4976272;28;20045;-87
2021/04/13 08:47:59;;;;;;;11.33;7.30;;;5.70;99.90;;;;;;4993019;28;20499;-88
2021/04/13 08:50:38;;;;;;;9.40;6.27;;;5.80;99.90;;;;;;4973201;28;20053;-88
2021/04/13 08:53:26;;;;;;;10.93;7.10;;;5.80;99.90;;;;;;4973702;28;20022;-88
2021/04/13 08:56:10;;;;;;;12.50;7.63;;;5.80;99.90;;;;;;4986092;28;20370;-91
2021/04/13 08:58:49;;;;;;;11.93;7.50;;;5.80;99.90;;;;;;4989116;28;20511;-88
2021/04/13 09:01:38;;;;;;;14.00;8.17;;;5.90;99.90;;;;;;4974837;28;20073;-88
2021/04/13 09:04:10;;;;;;;12.97;8.40;;;6.00;99.90;;;;;;4968397;28;20026;-89
2021/04/13 09:06:56;;;;;;;11.75;7.32;;;6.30;99.90;;;;;;4970880;28;20034;-88
2021/04/13 09:10:12;;;;;;;12.40;7.67;;;6.40;99.90;;;;;;4973720;28;20027;-88
2021/04/13 09:12:41;;;;;;;12.40;7.87;;;6.30;99.90;;;;;;4978265;28;20081;-88
2021/04/13 09:15:19;;;;;;;11.53;8.37;;;6.40;99.90;;;;;;4969504;28;20027;-88
2021/04/13 09:17:48;;;;;;;13.60;7.73;;;6.20;99.90;;;;;;4988729;28;20026;-87
2021/04/13 09:20:37;;;;;;;10.87;7.20;;;6.00;99.90;;;;;;4993844;28;20026;-87
2021/04/13 09:23:05;;;;;;;10.80;6.50;;;6.00;99.90;;;;;;4992617;28;20427;-87
2021/04/13 09:25:38;;;;;;;10.70;6.67;;;5.90;99.90;;;;;;4991722;28;20022;-87
2021/04/13 09:28:21;;;;;;;10.30;6.07;;;5.90;99.90;;;;;;4992402;28;20034;-87
2021/04/13 09:30:50;;;;;;;9.20;6.17;;;5.90;99.60;;;;;;4982931;28;20045;-89
2021/04/13 09:33:38;;;;;;;9.50;5.33;;;5.90;99.90;;;;;;4976345;28;20038;-88
2021/04/13 09:36:28;;;;;;;11.10;6.20;;;5.90;98.50;;;;;;4981603;28;20029;-88
2021/04/13 09:39:31;;;;;;;9.13;5.87;;;5.90;97.60;;;;;;4977711;28;20030;-87
2021/04/13 09:42:06;;;;;;;11.57;6.32;;;6.10;98.50;;;;;;4969132;28;20035;-87
2021/04/13 09:45:02;;;;;;;8.60;5.50;;;6.40;97.10;;;;;;4973404;28;20038;-87
2021/04/13 09:47:47;;;;;;;8.63;5.80;;;6.60;97.30;;;;;;4976722;28;20038;-87
2021/04/13 09:50:42;;;;;;;7.80;5.13;;;6.70;94.50;;;;;;4982756;28;20022;-86
2021/04/13 09:53:16;;;;;;;7.50;5.27;;;6.80;92.20;;;;;;4981170;28;20050;-88
2021/04/13 09:55:49;;;;;;;7.80;5.27;;;6.90;92.60;;;;;;4993927;28;20030;-87
2021/04/13 09:58:32;;;;;;;8.73;5.67;;;6.90;91.60;;;;;;4985288;28;20030;-87
2021/04/13 10:01:03;;;;;;;9.37;5.40;;;6.80;90.90;;;;;;4988888;28;20051;-87
2021/04/13 10:03:50;;;;;;;8.90;5.70;;;6.70;90.40;;;;;;4976502;28;20042;-87
2021/04/13 10:06:29;;;;;;;8.40;5.90;;;6.60;91.90;;;;;;4976362;28;20034;-87
2021/04/13 10:09:04;;;;;;;12.20;6.53;;;6.50;92.40;;;;;;4996673;28;20033;-87
2021/04/13 10:12:00;;;;;;;12.87;7.87;;;6.70;92.50;;;;;;4982789;28;20022;-89
2021/04/13 10:15:22;;;;;;;10.93;6.20;;;7.10;91.20;;;;;;4979542;28;20487;-87
2021/04/13 10:18:12;;;;;;;9.53;5.60;;;7.40;91.10;;;;;;4919128;29;20605;-87
2021/04/13 10:21:08;;;;;;;9.53;6.30;;;7.90;88.60;;;;;;4971159;28;20038;-87
2021/04/13 10:23:54;;;;;;;8.30;5.87;;;8.40;86.60;;;;;;4974156;28;20030;-87
2021/04/13 10:26:34;;;;;;;7.60;5.00;;;8.10;86.00;;;;;;4982323;28;20053;-90
2021/04/13 10:29:30;;;;;;;10.17;5.83;;;8.00;79.30;;;;;;4974088;28;20026;-87
2021/04/13 10:31:56;;;;;;;8.27;5.30;;;7.60;79.30;;;;;;4993197;28;20050;-87
2021/04/13 10:35:06;;;;;;;9.37;5.23;;;7.50;84.50;;;;;;4979596;28;20031;-87
2021/04/13 10:37:47;;;;;;;9.53;5.90;;;7.50;82.50;;;;;;4974835;28;20039;-87
2021/04/13 10:40:50;;;;;;;8.00;5.57;;;7.50;84.00;;;;;;4971057;28;20030;-88
2021/04/13 10:43:45;;;;;;;9.27;5.32;;;7.30;82.80;;;;;;4988977;28;20109;-87
2021/04/13 10:46:32;;;;;;;8.60;5.60;;;7.00;84.00;;;;;;4974494;28;20110;-89
2021/04/13 10:49:07;;;;;;;10.73;6.07;;;6.90;86.00;;;;;;4974953;28;20038;-87
2021/04/13 10:52:03;;;;;;;8.07;5.17;;;6.90;87.50;;;;;;4973935;28;20077;-88
2021/04/13 10:54:46;;;;;;;9.63;4.97;;;6.80;87.90;;;;;;4967907;28;20416;-88
2021/04/13 10:57:11;;;;;;;9.70;5.40;;;7.10;86.90;;;;;;4990111;28;20018;-87
2021/04/13 10:59:54;;;;;;;7.10;4.50;;;7.70;83.90;;;;;;4991516;28;20022;-88
2021/04/13 11:02:58;;;;;;;7.23;4.67;;;8.30;77.30;;;;;;4973926;28;20034;-88
2021/04/13 11:05:41;;;;;;;7.07;4.80;;;8.80;76.90;;;;;;4975610;28;20082;-89
2021/04/13 11:09:04;;;;;;;10.20;4.70;;;9.10;76.20;;;;;;4977389;28;20390;-87
2021/04/13 11:12:16;;;;;;;6.47;4.35;;;9.30;73.70;;;;;;4882284;29;20059;-87
2021/04/13 11:15:04;;;;;;;7.80;4.90;;;9.80;72.60;;;;;;4880706;29;20028;-88
2021/04/13 11:17:49;;;;;;;7.50;4.78;;;9.70;70.60;;;;;;4969528;28;20265;-87
2021/04/13 11:20:35;;;;;;;7.10;4.73;;;8.90;69.50;;;;;;4979364;28;20122;-87
2021/04/13 11:23:29;;;;;;;7.97;4.97;;;8.40;71.90;;;;;;4988274;28;20097;-86
2021/04/13 11:26:16;;;;;;;8.67;4.97;;;8.00;72.10;;;;;;4973200;28;20036;-86
2021/04/13 11:29:28;;;;;;;7.33;4.60;;;8.10;72.00;;;;;;4975045;28;20031;-87
2021/04/13 11:32:12;;;;;;;9.40;4.90;;;8.20;70.10;;;;;;4979141;28;20029;-88
2021/04/13 11:34:55;;;;;;;8.53;4.10;;;8.60;70.40;;;;;;4976907;28;20022;-88
2021/04/13 11:37:50;;;;;;;7.05;4.50;;;9.10;66.50;;;;;;4997136;28;20018;-88
2021/04/13 11:40:38;;;;;;;7.85;4.25;;;9.20;66.60;;;;;;4969869;28;20395;-88
2021/04/13 11:43:08;;;;;;;7.95;4.03;;;9.50;67.30;;;;;;4986197;28;20096;-90
2021/04/13 11:46:11;;;;;;;5.80;3.40;;;9.70;62.80;;;;;;4974528;28;20482;-88
2021/04/13 11:49:10;;;;;;;7.60;3.30;;;9.80;57.80;;;;;;4977240;28;20034;-88
2021/04/13 11:51:59;;;;;;;5.53;2.80;;;9.70;55.10;;;;;;4978877;28;20177;-87
2021/04/13 11:54:36;;;;;;;5.80;3.35;;;9.80;56.40;;;;;;4972378;28;20058;-87
2021/04/13 11:57:17;;;;;;;6.32;3.42;;;10.00;55.70;;;;;;4992194;28;20149;-87
2021/04/13 12:00:03;;;;;;;5.25;3.22;;;10.20;57.30;;;;;;4996380;28;20046;-88
2021/04/13 12:02:30;;;;;;;5.50;3.15;;;10.70;56.90;;;;;;4979961;28;20125;-89
2021/04/13 12:04:57;;;;;;;6.35;3.30;;;10.80;54.90;;;;;;4980359;28;20033;-88
2021/04/13 12:07:44;;;;;;;4.28;2.80;;;11.00;56.70;;;;;;4992830;28;20098;-87
2021/04/13 12:10:12;;;;;;;5.03;3.15;;;11.10;52.00;;;;;;4978069;28;20034;-88
2021/04/13 12:12:40;;;;;;;6.78;3.40;;;10.60;52.70;;;;;;4984364;28;20034;-87
2021/04/13 12:15:05;;;;;;;7.47;3.50;;;9.70;54.20;;;;;;4975402;28;20041;-88
2021/04/13 12:17:34;;;;;;;6.82;3.90;;;9.40;55.00;;;;;;4998794;28;20030;-88
2021/04/13 12:20:26;;;;;;;7.25;3.80;;;9.70;57.60;;;;;;5007878;28;20098;-88
2021/04/13 12:23:05;;;;;;;5.80;2.60;;;10.30;56.80;;;;;;4999146;28;20022;-88
2021/04/13 12:25:51;;;;;;;6.38;3.20;;;10.10;57.00;;;;;;5004109;28;20097;-88
2021/04/13 12:28:40;;;;;;;5.63;3.20;;;9.70;59.70;;;;;;4979868;28;20034;-87
2021/04/13 12:31:23;;;;;;;6.20;3.53;;;9.40;62.00;;;;;;4985276;28;20069;-88
2021/04/13 12:33:54;;;;;;;5.03;3.33;;;9.00;63.00;;;;;;4971367;28;20022;-87
2021/04/13 12:36:47;;;;;;;4.97;3.45;;;8.90;63.50;;;;;;5004021;28;20053;-88
2021/04/13 12:39:31;;;;;;;;;;;9.30;58.80;;;;;;4983151;28;20104;-89
2021/04/13 12:42:07;;;;;;;5.70;2.90;;;9.60;56.00;;;;;;4999247;28;19915;-92
2021/04/13 12:44:35;;;;;;;7.43;3.13;;;9.80;54.80;;;;;;4963750;28;20031;-91
2021/04/13 12:47:00;;;;;;;5.30;2.83;;;10.40;52.60;;;;;;4964783;28;20582;-89
2021/04/13 12:49:31;;;;;;;4.40;2.40;;;10.50;53.50;;;;;;4976224;28;20050;-88
2021/04/13 12:51:57;;;;;;;4.78;2.50;;;10.30;50.90;;;;;;4970034;28;20025;-88
2021/04/13 12:54:54;;;;;;;4.10;2.03;;;10.00;51.10;;;;;;4970122;28;20126;-88
2021/04/13 12:57:22;;;;;;;3.85;2.08;;;9.80;50.70;;;;;;4966349;28;20027;-88
2021/04/13 12:59:51;;;;;;;5.03;2.00;;;10.40;50.90;;;;;;4985248;28;20036;-89
2021/04/13 13:02:47;;;;;;;5.68;1.83;;;11.00;50.10;;;;;;4979249;28;20081;-88
2021/04/13 13:05:33;;;;;;;5.32;2.30;;;11.30;46.70;;;;;;4991274;28;20203;-88
2021/04/13 13:08:01;;;;;;;4.35;1.90;;;11.60;46.30;;;;;;4972317;28;20071;-88
2021/04/13 13:10:32;;;;;;;3.38;1.90;;;11.90;45.60;;;;;;4977663;28;20113;-87
2021/04/13 13:13:17;;;;;;;4.50;2.03;;;11.40;46.90;;;;;;4974488;28;20101;-88
2021/04/13 13:15:43;;;;;;;3.70;1.90;;;11.40;48.50;;;;;;4967736;28;20026;-88
2021/04/13 13:18:23;;;;;;;3.58;1.92;;;11.60;45.90;;;;;;4972798;28;20380;-89
2021/04/13 13:20:58;;;;;;;2.88;1.73;;;12.20;45.80;;;;;;4980186;28;20026;-89
2021/04/13 13:23:36;;;;;;;3.75;2.10;;;12.40;45.90;;;;;;4995171;28;20023;-89
2021/04/13 13:26:22;;;;;;;5.05;2.05;;;12.70;46.10;;;;;;4968687;28;20355;-89
2021/04/13 13:28:52;;;;;;;3.75;1.90;;;12.70;43.90;;;;;;4974891;28;20030;-90
2021/04/13 13:31:25;;;;;;;7.10;2.33;;;11.90;43.80;;;;;;4979770;28;20136;-89
2021/04/13 13:34:26;;;;;;;4.28;2.17;;;11.10;46.70;;;;;;4978013;28;20134;-90
2021/04/13 13:36:52;;;;;;;4.85;2.60;;;10.60;48.80;;;;;;4978793;28;20019;-92
2021/04/13 13:39:27;;;;;;;5.25;2.63;;;10.40;51.90;;;;;;4978953;28;20037;-90
2021/04/13 13:41:58;;;;;;;5.43;2.90;;;9.90;54.20;;;;;;4980744;28;20030;-89
2021/04/13 13:44:39;;;;;;;5.63;2.90;;;9.60;56.50;;;;;;4977850;28;20029;-91
2021/04/13 13:47:31;;;;;;;5.57;2.90;;;9.50;59.40;;;;;;4980386;28;20033;-90
2021/04/13 13:49:59;;;;;;;6.70;2.80;;;9.40;59.90;;;;;;4974593;28;20038;-90
2021/04/13 13:52:38;;;;;;;5.57;2.95;;;9.20;60.60;;;;;;4980509;28;20636;-89
2021/04/13 13:55:26;;;;;;;5.25;3.00;;;9.30;59.50;;;;;;4977862;28;20676;-90
2021/04/13 13:58:21;;;;;;;4.32;2.55;;;9.70;59.80;;;;;;4980083;28;20034;-92
2021/04/13 14:00:49;;;;;;;6.15;2.38;;;9.80;59.30;;;;;;4971983;28;20037;-90